sensor_id;sensor_type;location;lat;lon;timestamp;P1;durP1;ratioP1;P2;durP2;ratioP2
78610;SDS011;67932;50.474;4.436;2023-03-14T00:01:46;7.65;;;1.15;;
78610;SDS011;67932;50.474;4.436;2023-03-14T00:04:13;9.55;;;1.20;;
78610;SDS011;67932;50.474;4.436;2023-03-14T00:06:39;7.15;;;1.10;;
78610;SDS011;67932;50.474;4.436;2023-03-14T00:09:07;5.93;;;1.00;;
78610;SDS011;67932;50.474;4.436;2023-03-14T00:11:33;6.72;;;1.05;;
78610;SDS011;67932;50.474;4.436;2023-03-14T00:13:59;5.55;;;0.95;;
78610;SDS011;67932;50.474;4.436;2023-03-14T00:16:26;9.25;;;1.40;;
78610;SDS011;67932;50.474;4.436;2023-03-14T00:18:52;6.53;;;1.40;;
78610;SDS011;67932;50.474;4.436;2023-03-14T00:21:18;5.57;;;0.95;;
78610;SDS011;67932;50.474;4.436;2023-03-14T00:23:44;13.45;;;1.10;;
78610;SDS011;67932;50.474;4.436;2023-03-14T00:26:14;10.38;;;1.58;;
78610;SDS011;67932;50.474;4.436;2023-03-14T00:31:09;7.03;;;1.60;;
78610;SDS011;67932;50.474;4.436;2023-03-14T00:33:35;4.40;;;1.52;;
78610;SDS011;67932;50.474;4.436;2023-03-14T00:36:03;6.60;;;1.00;;
78610;SDS011;67932;50.474;4.436;2023-03-14T00:38:31;6.75;;;1.52;;
78610;SDS011;67932;50.474;4.436;2023-03-14T00:40:58;8.63;;;1.30;;
78610;SDS011;67932;50.474;4.436;2023-03-14T00:43:25;9.15;;;2.00;;
78610;SDS011;67932;50.474;4.436;2023-03-14T00:45:53;7.07;;;1.85;;
78610;SDS011;67932;50.474;4.436;2023-03-14T00:48:19;6.00;;;1.67;;
78610;SDS011;67932;50.474;4.436;2023-03-14T00:50:46;6.45;;;1.20;;
78610;SDS011;67932;50.474;4.436;2023-03-14T00:53:12;5.80;;;1.40;;
78610;SDS011;67932;50.474;4.436;2023-03-14T00:55:42;4.68;;;1.83;;
78610;SDS011;67932;50.474;4.436;2023-03-14T00:58:09;9.55;;;1.33;;
78610;SDS011;67932;50.474;4.436;2023-03-14T01:00:35;6.75;;;1.02;;
78610;SDS011;67932;50.474;4.436;2023-03-14T01:03:02;6.45;;;1.55;;
78610;SDS011;67932;50.474;4.436;2023-03-14T01:05:28;6.95;;;1.65;;
78610;SDS011;67932;50.474;4.436;2023-03-14T01:07:54;5.38;;;1.85;;
78610;SDS011;67932;50.474;4.436;2023-03-14T01:10:20;8.25;;;1.40;;
78610;SDS011;67932;50.474;4.436;2023-03-14T01:12:46;11.90;;;1.92;;
78610;SDS011;67932;50.474;4.436;2023-03-14T01:15:13;9.15;;;1.60;;
78610;SDS011;67932;50.474;4.436;2023-03-14T01:17:39;8.18;;;1.70;;
78610;SDS011;67932;50.474;4.436;2023-03-14T01:20:06;8.98;;;1.65;;
78610;SDS011;67932;50.474;4.436;2023-03-14T01:22:34;8.20;;;1.55;;
78610;SDS011;67932;50.474;4.436;2023-03-14T01:25:00;10.30;;;1.63;;
78610;SDS011;67932;50.474;4.436;2023-03-14T01:27:26;9.90;;;2.00;;
78610;SDS011;67932;50.474;4.436;2023-03-14T01:29:52;7.07;;;1.48;;
78610;SDS011;67932;50.474;4.436;2023-03-14T01:32:19;9.27;;;1.98;;
78610;SDS011;67932;50.474;4.436;2023-03-14T01:34:45;8.00;;;1.98;;
78610;SDS011;67932;50.474;4.436;2023-03-14T01:37:11;8.68;;;1.67;;
78610;SDS011;67932;50.474;4.436;2023-03-14T01:39:40;10.27;;;2.17;;
78610;SDS011;67932;50.474;4.436;2023-03-14T01:42:06;10.65;;;2.10;;
78610;SDS011;67932;50.474;4.436;2023-03-14T01:47:16;16.05;;;3.13;;
78610;SDS011;67932;50.474;4.436;2023-03-14T01:49:42;10.80;;;2.92;;
78610;SDS011;67932;50.474;4.436;2023-03-14T01:52:10;11.18;;;3.22;;
78610;SDS011;67932;50.474;4.436;2023-03-14T01:54:41;10.65;;;2.63;;
78610;SDS011;67932;50.474;4.436;2023-03-14T01:59:37;9.23;;;2.83;;
78610;SDS011;67932;50.474;4.436;2023-03-14T02:02:05;11.88;;;2.80;;
78610;SDS011;67932;50.474;4.436;2023-03-14T02:04:35;12.02;;;2.17;;
78610;SDS011;67932;50.474;4.436;2023-03-14T02:07:10;10.48;;;2.60;;
78610;SDS011;67932;50.474;4.436;2023-03-14T02:09:38;9.77;;;1.90;;
78610;SDS011;67932;50.474;4.436;2023-03-14T02:12:05;9.60;;;2.33;;
78610;SDS011;67932;50.474;4.436;2023-03-14T02:14:34;9.63;;;2.20;;
78610;SDS011;67932;50.474;4.436;2023-03-14T02:17:01;12.15;;;1.83;;
78610;SDS011;67932;50.474;4.436;2023-03-14T02:22:13;11.88;;;2.47;;
78610;SDS011;67932;50.474;4.436;2023-03-14T02:27:24;7.70;;;2.22;;
78610;SDS011;67932;50.474;4.436;2023-03-14T02:29:57;13.77;;;2.42;;
78610;SDS011;67932;50.474;4.436;2023-03-14T02:32:25;14.85;;;3.10;;
78610;SDS011;67932;50.474;4.436;2023-03-14T02:34:52;8.60;;;1.88;;
78610;SDS011;67932;50.474;4.436;2023-03-14T02:37:20;10.57;;;2.42;;
78610;SDS011;67932;50.474;4.436;2023-03-14T02:39:47;11.75;;;3.47;;
78610;SDS011;67932;50.474;4.436;2023-03-14T02:42:14;11.23;;;2.75;;
78610;SDS011;67932;50.474;4.436;2023-03-14T02:44:54;9.70;;;2.63;;
78610;SDS011;67932;50.474;4.436;2023-03-14T02:47:22;16.20;;;3.80;;
78610;SDS011;67932;50.474;4.436;2023-03-14T02:49:53;18.35;;;3.10;;
78610;SDS011;67932;50.474;4.436;2023-03-14T02:52:21;10.27;;;2.78;;
78610;SDS011;67932;50.474;4.436;2023-03-14T02:54:47;14.82;;;2.75;;
78610;SDS011;67932;50.474;4.436;2023-03-14T02:57:13;10.82;;;2.78;;
78610;SDS011;67932;50.474;4.436;2023-03-14T02:59:39;10.95;;;2.63;;
78610;SDS011;67932;50.474;4.436;2023-03-14T03:02:05;9.50;;;2.25;;
78610;SDS011;67932;50.474;4.436;2023-03-14T03:04:32;14.55;;;2.28;;
78610;SDS011;67932;50.474;4.436;2023-03-14T03:06:58;13.38;;;2.60;;
78610;SDS011;67932;50.474;4.436;2023-03-14T03:09:24;7.72;;;2.10;;
78610;SDS011;67932;50.474;4.436;2023-03-14T03:11:50;9.85;;;2.45;;
78610;SDS011;67932;50.474;4.436;2023-03-14T03:14:16;7.47;;;2.40;;
78610;SDS011;67932;50.474;4.436;2023-03-14T03:16:42;12.15;;;2.22;;
78610;SDS011;67932;50.474;4.436;2023-03-14T03:19:08;6.88;;;2.45;;
78610;SDS011;67932;50.474;4.436;2023-03-14T03:21:34;8.95;;;2.75;;
78610;SDS011;67932;50.474;4.436;2023-03-14T03:24:00;8.45;;;2.40;;
78610;SDS011;67932;50.474;4.436;2023-03-14T03:26:26;9.90;;;2.17;;
78610;SDS011;67932;50.474;4.436;2023-03-14T03:28:52;10.50;;;3.13;;
78610;SDS011;67932;50.474;4.436;2023-03-14T03:31:18;4.93;;;2.28;;
78610;SDS011;67932;50.474;4.436;2023-03-14T03:33:44;6.22;;;2.33;;
78610;SDS011;67932;50.474;4.436;2023-03-14T03:36:10;9.13;;;1.80;;
78610;SDS011;67932;50.474;4.436;2023-03-14T03:38:36;5.45;;;2.03;;
78610;SDS011;67932;50.474;4.436;2023-03-14T03:41:04;5.90;;;2.03;;
78610;SDS011;67932;50.474;4.436;2023-03-14T03:43:30;5.18;;;1.95;;
78610;SDS011;67932;50.474;4.436;2023-03-14T03:45:58;6.13;;;1.48;;
78610;SDS011;67932;50.474;4.436;2023-03-14T03:48:24;8.40;;;2.35;;
78610;SDS011;67932;50.474;4.436;2023-03-14T03:50:50;7.00;;;1.83;;
78610;SDS011;67932;50.474;4.436;2023-03-14T03:53:16;7.13;;;2.15;;
78610;SDS011;67932;50.474;4.436;2023-03-14T03:55:42;7.85;;;2.13;;
78610;SDS011;67932;50.474;4.436;2023-03-14T03:58:08;7.70;;;2.00;;
78610;SDS011;67932;50.474;4.436;2023-03-14T04:00:34;10.10;;;2.30;;
78610;SDS011;67932;50.474;4.436;2023-03-14T04:03:00;4.45;;;1.55;;
78610;SDS011;67932;50.474;4.436;2023-03-14T04:05:26;4.70;;;1.30;;
78610;SDS011;67932;50.474;4.436;2023-03-14T04:07:52;6.35;;;1.80;;
78610;SDS011;67932;50.474;4.436;2023-03-14T04:10:18;5.45;;;1.75;;
78610;SDS011;67932;50.474;4.436;2023-03-14T04:12:44;4.78;;;1.83;;
78610;SDS011;67932;50.474;4.436;2023-03-14T04:15:10;6.57;;;1.13;;
78610;SDS011;67932;50.474;4.436;2023-03-14T04:17:36;6.30;;;1.63;;
78610;SDS011;67932;50.474;4.436;2023-03-14T04:20:02;4.53;;;1.58;;
78610;SDS011;67932;50.474;4.436;2023-03-14T04:22:29;5.78;;;1.90;;
78610;SDS011;67932;50.474;4.436;2023-03-14T04:24:55;5.03;;;1.65;;
78610;SDS011;67932;50.474;4.436;2023-03-14T04:27:21;5.40;;;1.77;;
78610;SDS011;67932;50.474;4.436;2023-03-14T04:29:47;5.30;;;1.52;;
78610;SDS011;67932;50.474;4.436;2023-03-14T04:32:13;5.95;;;1.73;;
78610;SDS011;67932;50.474;4.436;2023-03-14T04:34:39;8.07;;;1.83;;
78610;SDS011;67932;50.474;4.436;2023-03-14T04:37:06;4.00;;;1.67;;
78610;SDS011;67932;50.474;4.436;2023-03-14T04:39:32;3.92;;;1.75;;
78610;SDS011;67932;50.474;4.436;2023-03-14T04:41:58;4.05;;;1.63;;
78610;SDS011;67932;50.474;4.436;2023-03-14T04:44:25;3.58;;;1.60;;
78610;SDS011;67932;50.474;4.436;2023-03-14T04:46:51;2.58;;;1.13;;
78610;SDS011;67932;50.474;4.436;2023-03-14T04:49:17;5.32;;;1.65;;
78610;SDS011;67932;50.474;4.436;2023-03-14T04:51:43;3.38;;;1.52;;
78610;SDS011;67932;50.474;4.436;2023-03-14T04:54:09;4.53;;;1.73;;
78610;SDS011;67932;50.474;4.436;2023-03-14T04:56:35;5.07;;;1.90;;
78610;SDS011;67932;50.474;4.436;2023-03-14T04:59:02;5.40;;;1.50;;
78610;SDS011;67932;50.474;4.436;2023-03-14T05:01:28;3.28;;;1.50;;
78610;SDS011;67932;50.474;4.436;2023-03-14T05:03:54;2.15;;;1.10;;
78610;SDS011;67932;50.474;4.436;2023-03-14T05:06:20;2.30;;;1.35;;
78610;SDS011;67932;50.474;4.436;2023-03-14T05:08:46;4.70;;;1.20;;
78610;SDS011;67932;50.474;4.436;2023-03-14T05:11:12;3.17;;;1.70;;
78610;SDS011;67932;50.474;4.436;2023-03-14T05:13:39;4.60;;;2.05;;
78610;SDS011;67932;50.474;4.436;2023-03-14T05:16:06;3.33;;;1.48;;
78610;SDS011;67932;50.474;4.436;2023-03-14T05:18:32;2.90;;;1.23;;
78610;SDS011;67932;50.474;4.436;2023-03-14T05:20:58;4.38;;;1.70;;
78610;SDS011;67932;50.474;4.436;2023-03-14T05:23:24;4.15;;;1.55;;
78610;SDS011;67932;50.474;4.436;2023-03-14T05:25:50;3.75;;;1.17;;
78610;SDS011;67932;50.474;4.436;2023-03-14T05:28:16;2.55;;;1.50;;
78610;SDS011;67932;50.474;4.436;2023-03-14T05:30:42;2.53;;;1.45;;
78610;SDS011;67932;50.474;4.436;2023-03-14T05:33:09;3.33;;;1.45;;
78610;SDS011;67932;50.474;4.436;2023-03-14T05:35:35;3.85;;;1.17;;
78610;SDS011;67932;50.474;4.436;2023-03-14T05:38:01;2.30;;;1.30;;
78610;SDS011;67932;50.474;4.436;2023-03-14T05:40:27;3.83;;;1.60;;
78610;SDS011;67932;50.474;4.436;2023-03-14T05:42:53;3.35;;;1.52;;
78610;SDS011;67932;50.474;4.436;2023-03-14T05:45:19;3.20;;;1.60;;
78610;SDS011;67932;50.474;4.436;2023-03-14T05:47:45;2.47;;;1.75;;
78610;SDS011;67932;50.474;4.436;2023-03-14T05:50:11;7.28;;;1.80;;
78610;SDS011;67932;50.474;4.436;2023-03-14T05:52:37;2.78;;;1.63;;
78610;SDS011;67932;50.474;4.436;2023-03-14T05:55:03;3.90;;;1.63;;
78610;SDS011;67932;50.474;4.436;2023-03-14T05:57:29;2.85;;;1.33;;
78610;SDS011;67932;50.474;4.436;2023-03-14T05:59:56;3.88;;;1.92;;
78610;SDS011;67932;50.474;4.436;2023-03-14T06:02:22;2.90;;;1.60;;
78610;SDS011;67932;50.474;4.436;2023-03-14T06:04:48;5.60;;;1.92;;
78610;SDS011;67932;50.474;4.436;2023-03-14T06:07:14;5.55;;;2.08;;
78610;SDS011;67932;50.474;4.436;2023-03-14T06:09:40;3.85;;;2.05;;
78610;SDS011;67932;50.474;4.436;2023-03-14T06:12:06;4.38;;;1.60;;
78610;SDS011;67932;50.474;4.436;2023-03-14T06:14:32;2.90;;;1.48;;
78610;SDS011;67932;50.474;4.436;2023-03-14T06:16:58;6.03;;;2.00;;
78610;SDS011;67932;50.474;4.436;2023-03-14T06:19:24;7.10;;;1.77;;
78610;SDS011;67932;50.474;4.436;2023-03-14T06:21:51;4.72;;;2.05;;
78610;SDS011;67932;50.474;4.436;2023-03-14T06:24:17;5.85;;;2.42;;
78610;SDS011;67932;50.474;4.436;2023-03-14T06:26:43;4.07;;;2.20;;
78610;SDS011;67932;50.474;4.436;2023-03-14T06:29:10;4.35;;;2.00;;
78610;SDS011;67932;50.474;4.436;2023-03-14T06:31:36;4.78;;;1.95;;
78610;SDS011;67932;50.474;4.436;2023-03-14T06:34:02;5.15;;;2.58;;
78610;SDS011;67932;50.474;4.436;2023-03-14T06:36:29;3.72;;;1.70;;
78610;SDS011;67932;50.474;4.436;2023-03-14T06:38:55;3.38;;;1.60;;
78610;SDS011;67932;50.474;4.436;2023-03-14T06:41:22;3.60;;;1.88;;
78610;SDS011;67932;50.474;4.436;2023-03-14T06:43:50;5.93;;;1.90;;
78610;SDS011;67932;50.474;4.436;2023-03-14T06:46:17;4.25;;;1.73;;
78610;SDS011;67932;50.474;4.436;2023-03-14T06:48:43;1.85;;;1.25;;
78610;SDS011;67932;50.474;4.436;2023-03-14T06:51:09;3.00;;;1.15;;
78610;SDS011;67932;50.474;4.436;2023-03-14T06:53:35;2.63;;;1.40;;
78610;SDS011;67932;50.474;4.436;2023-03-14T06:56:02;2.10;;;1.27;;
78610;SDS011;67932;50.474;4.436;2023-03-14T06:58:29;3.72;;;1.27;;
78610;SDS011;67932;50.474;4.436;2023-03-14T07:00:55;2.78;;;1.10;;
78610;SDS011;67932;50.474;4.436;2023-03-14T07:03:22;2.55;;;1.33;;
78610;SDS011;67932;50.474;4.436;2023-03-14T07:05:48;2.78;;;1.10;;
78610;SDS011;67932;50.474;4.436;2023-03-14T07:08:14;0.75;;;0.40;;
78610;SDS011;67932;50.474;4.436;2023-03-14T07:10:40;2.03;;;0.73;;
78610;SDS011;67932;50.474;4.436;2023-03-14T07:13:07;1.45;;;0.80;;
78610;SDS011;67932;50.474;4.436;2023-03-14T07:15:33;1.67;;;0.90;;
78610;SDS011;67932;50.474;4.436;2023-03-14T07:17:59;1.73;;;0.80;;
78610;SDS011;67932;50.474;4.436;2023-03-14T07:20:25;1.98;;;1.02;;
78610;SDS011;67932;50.474;4.436;2023-03-14T07:22:51;3.40;;;1.30;;
78610;SDS011;67932;50.474;4.436;2023-03-14T07:25:17;2.97;;;1.17;;
78610;SDS011;67932;50.474;4.436;2023-03-14T07:27:44;1.55;;;0.82;;
78610;SDS011;67932;50.474;4.436;2023-03-14T07:30:10;7.97;;;1.63;;
78610;SDS011;67932;50.474;4.436;2023-03-14T07:32:36;1.85;;;0.95;;
78610;SDS011;67932;50.474;4.436;2023-03-14T07:35:04;3.72;;;1.67;;
78610;SDS011;67932;50.474;4.436;2023-03-14T07:37:30;2.83;;;1.35;;
78610;SDS011;67932;50.474;4.436;2023-03-14T07:39:56;3.20;;;1.15;;
78610;SDS011;67932;50.474;4.436;2023-03-14T07:42:22;3.72;;;1.63;;
78610;SDS011;67932;50.474;4.436;2023-03-14T07:44:48;3.25;;;1.75;;
78610;SDS011;67932;50.474;4.436;2023-03-14T07:47:14;3.72;;;1.40;;
78610;SDS011;67932;50.474;4.436;2023-03-14T07:49:40;1.77;;;1.00;;
78610;SDS011;67932;50.474;4.436;2023-03-14T07:52:07;2.78;;;1.30;;
78610;SDS011;67932;50.474;4.436;2023-03-14T07:54:33;3.63;;;1.45;;
78610;SDS011;67932;50.474;4.436;2023-03-14T07:57:00;4.55;;;1.65;;
78610;SDS011;67932;50.474;4.436;2023-03-14T07:59:26;4.28;;;1.55;;
78610;SDS011;67932;50.474;4.436;2023-03-14T08:01:53;4.07;;;2.30;;
78610;SDS011;67932;50.474;4.436;2023-03-14T08:04:19;2.55;;;1.25;;
78610;SDS011;67932;50.474;4.436;2023-03-14T08:06:45;2.55;;;1.58;;
78610;SDS011;67932;50.474;4.436;2023-03-14T08:09:11;4.20;;;1.92;;
78610;SDS011;67932;50.474;4.436;2023-03-14T08:11:37;3.75;;;1.60;;
78610;SDS011;67932;50.474;4.436;2023-03-14T08:14:03;4.10;;;2.38;;
78610;SDS011;67932;50.474;4.436;2023-03-14T08:16:29;6.63;;;2.70;;
78610;SDS011;67932;50.474;4.436;2023-03-14T08:18:55;6.28;;;2.92;;
78610;SDS011;67932;50.474;4.436;2023-03-14T08:21:22;6.38;;;3.20;;
78610;SDS011;67932;50.474;4.436;2023-03-14T08:23:48;6.43;;;1.95;;
78610;SDS011;67932;50.474;4.436;2023-03-14T08:26:14;6.88;;;3.30;;
78610;SDS011;67932;50.474;4.436;2023-03-14T08:28:41;7.90;;;3.47;;
78610;SDS011;67932;50.474;4.436;2023-03-14T08:31:07;5.95;;;2.50;;
78610;SDS011;67932;50.474;4.436;2023-03-14T08:33:33;8.27;;;4.35;;
78610;SDS011;67932;50.474;4.436;2023-03-14T08:36:00;10.93;;;4.28;;
78610;SDS011;67932;50.474;4.436;2023-03-14T08:38:28;7.95;;;3.42;;
78610;SDS011;67932;50.474;4.436;2023-03-14T08:40:56;6.07;;;2.50;;
78610;SDS011;67932;50.474;4.436;2023-03-14T08:43:23;3.47;;;2.55;;
78610;SDS011;67932;50.474;4.436;2023-03-14T08:45:49;5.93;;;2.78;;
78610;SDS011;67932;50.474;4.436;2023-03-14T08:48:15;8.65;;;3.65;;
78610;SDS011;67932;50.474;4.436;2023-03-14T08:50:41;9.50;;;4.07;;
78610;SDS011;67932;50.474;4.436;2023-03-14T08:53:07;9.50;;;4.15;;
78610;SDS011;67932;50.474;4.436;2023-03-14T08:55:33;3.40;;;2.03;;
78610;SDS011;67932;50.474;4.436;2023-03-14T08:57:59;9.02;;;4.07;;
78610;SDS011;67932;50.474;4.436;2023-03-14T09:00:25;9.80;;;4.03;;
78610;SDS011;67932;50.474;4.436;2023-03-14T09:02:52;6.72;;;3.08;;
78610;SDS011;67932;50.474;4.436;2023-03-14T09:05:18;7.28;;;3.58;;
78610;SDS011;67932;50.474;4.436;2023-03-14T09:07:45;6.32;;;3.30;;
78610;SDS011;67932;50.474;4.436;2023-03-14T09:10:11;4.47;;;2.83;;
78610;SDS011;67932;50.474;4.436;2023-03-14T09:12:37;5.40;;;2.25;;
78610;SDS011;67932;50.474;4.436;2023-03-14T09:15:03;4.88;;;2.88;;
78610;SDS011;67932;50.474;4.436;2023-03-14T09:17:30;5.63;;;2.03;;
78610;SDS011;67932;50.474;4.436;2023-03-14T09:19:56;4.38;;;1.95;;
78610;SDS011;67932;50.474;4.436;2023-03-14T09:22:22;4.22;;;2.08;;
78610;SDS011;67932;50.474;4.436;2023-03-14T09:24:48;2.55;;;1.73;;
78610;SDS011;67932;50.474;4.436;2023-03-14T09:27:14;4.72;;;2.17;;
78610;SDS011;67932;50.474;4.436;2023-03-14T09:29:40;2.60;;;1.50;;
78610;SDS011;67932;50.474;4.436;2023-03-14T09:32:06;2.85;;;1.40;;
78610;SDS011;67932;50.474;4.436;2023-03-14T09:34:33;4.15;;;1.38;;
78610;SDS011;67932;50.474;4.436;2023-03-14T09:36:59;5.30;;;2.03;;
78610;SDS011;67932;50.474;4.436;2023-03-14T09:39:26;3.15;;;1.48;;
78610;SDS011;67932;50.474;4.436;2023-03-14T09:41:52;1.48;;;0.88;;
78610;SDS011;67932;50.474;4.436;2023-03-14T09:46:53;3.55;;;1.35;;
78610;SDS011;67932;50.474;4.436;2023-03-14T09:49:25;3.70;;;1.42;;
78610;SDS011;67932;50.474;4.436;2023-03-14T09:51:53;2.78;;;1.15;;
78610;SDS011;67932;50.474;4.436;2023-03-14T09:54:29;5.18;;;1.60;;
78610;SDS011;67932;50.474;4.436;2023-03-14T09:56:56;4.65;;;1.55;;
78610;SDS011;67932;50.474;4.436;2023-03-14T09:59:23;5.50;;;1.70;;
78610;SDS011;67932;50.474;4.436;2023-03-14T10:01:51;5.80;;;1.40;;
78610;SDS011;67932;50.474;4.436;2023-03-14T10:04:20;3.70;;;1.48;;
78610;SDS011;67932;50.474;4.436;2023-03-14T10:06:48;5.53;;;1.30;;
78610;SDS011;67932;50.474;4.436;2023-03-14T10:09:19;2.92;;;1.50;;
78610;SDS011;67932;50.474;4.436;2023-03-14T10:11:54;3.03;;;1.50;;
78610;SDS011;67932;50.474;4.436;2023-03-14T10:14:34;3.60;;;1.27;;
78610;SDS011;67932;50.474;4.436;2023-03-14T10:17:11;1.20;;;0.90;;
78610;SDS011;67932;50.474;4.436;2023-03-14T10:19:39;4.63;;;1.25;;
78610;SDS011;67932;50.474;4.436;2023-03-14T10:22:16;3.70;;;1.13;;
78610;SDS011;67932;50.474;4.436;2023-03-14T10:24:46;4.30;;;1.50;;
78610;SDS011;67932;50.474;4.436;2023-03-14T10:27:21;1.77;;;1.10;;
78610;SDS011;67932;50.474;4.436;2023-03-14T10:29:56;5.43;;;1.20;;
78610;SDS011;67932;50.474;4.436;2023-03-14T10:32:27;2.55;;;1.70;;
78610;SDS011;67932;50.474;4.436;2023-03-14T10:40:24;4.53;;;1.80;;
78610;SDS011;67932;50.474;4.436;2023-03-14T10:42:51;2.47;;;1.48;;
78610;SDS011;67932;50.474;4.436;2023-03-14T10:47:50;2.70;;;1.13;;
78610;SDS011;67932;50.474;4.436;2023-03-14T10:52:52;3.90;;;1.27;;
78610;SDS011;67932;50.474;4.436;2023-03-14T10:55:18;3.72;;;1.40;;
78610;SDS011;67932;50.474;4.436;2023-03-14T10:57:44;5.32;;;1.88;;
78610;SDS011;67932;50.474;4.436;2023-03-14T11:24:08;3.28;;;1.20;;
78610;SDS011;67932;50.474;4.436;2023-03-14T11:31:46;3.22;;;1.60;;
78610;SDS011;67932;50.474;4.436;2023-03-14T11:36:39;3.08;;;1.52;;
78610;SDS011;67932;50.474;4.436;2023-03-14T11:39:08;3.72;;;1.00;;
78610;SDS011;67932;50.474;4.436;2023-03-14T11:41:40;3.10;;;1.00;;
78610;SDS011;67932;50.474;4.436;2023-03-14T11:44:17;2.35;;;1.00;;
78610;SDS011;67932;50.474;4.436;2023-03-14T11:46:50;2.50;;;1.10;;
78610;SDS011;67932;50.474;4.436;2023-03-14T11:49:24;2.55;;;1.00;;
78610;SDS011;67932;50.474;4.436;2023-03-14T11:51:52;2.75;;;0.98;;
78610;SDS011;67932;50.474;4.436;2023-03-14T11:54:33;3.72;;;1.40;;
78610;SDS011;67932;50.474;4.436;2023-03-14T11:57:04;2.80;;;1.23;;
78610;SDS011;67932;50.474;4.436;2023-03-14T12:00:15;3.20;;;1.10;;
78610;SDS011;67932;50.474;4.436;2023-03-14T12:12:35;4.20;;;0.80;;
78610;SDS011;67932;50.474;4.436;2023-03-14T12:15:02;4.65;;;0.95;;
78610;SDS011;67932;50.474;4.436;2023-03-14T12:17:35;2.17;;;0.98;;
78610;SDS011;67932;50.474;4.436;2023-03-14T12:20:24;3.67;;;0.90;;
78610;SDS011;67932;50.474;4.436;2023-03-14T12:22:50;5.75;;;1.58;;
78610;SDS011;67932;50.474;4.436;2023-03-14T12:25:20;4.25;;;1.25;;
78610;SDS011;67932;50.474;4.436;2023-03-14T12:30:25;3.03;;;0.77;;
78610;SDS011;67932;50.474;4.436;2023-03-14T12:35:38;3.17;;;0.95;;
78610;SDS011;67932;50.474;4.436;2023-03-14T12:38:09;4.22;;;1.35;;
78610;SDS011;67932;50.474;4.436;2023-03-14T12:40:37;5.50;;;1.42;;
78610;SDS011;67932;50.474;4.436;2023-03-14T12:43:10;3.33;;;1.15;;
78610;SDS011;67932;50.474;4.436;2023-03-14T12:48:34;3.17;;;1.23;;
78610;SDS011;67932;50.474;4.436;2023-03-14T12:51:04;3.92;;;1.30;;
78610;SDS011;67932;50.474;4.436;2023-03-14T13:01:14;3.97;;;1.35;;
78610;SDS011;67932;50.474;4.436;2023-03-14T13:03:49;3.65;;;1.55;;
78610;SDS011;67932;50.474;4.436;2023-03-14T13:12:11;4.50;;;1.50;;
78610;SDS011;67932;50.474;4.436;2023-03-14T13:14:44;2.72;;;1.45;;
78610;SDS011;67932;50.474;4.436;2023-03-14T13:17:13;5.25;;;1.55;;
78610;SDS011;67932;50.474;4.436;2023-03-14T13:19:40;4.60;;;1.75;;
78610;SDS011;67932;50.474;4.436;2023-03-14T13:22:21;3.55;;;1.60;;
78610;SDS011;67932;50.474;4.436;2023-03-14T13:24:47;4.93;;;1.60;;
78610;SDS011;67932;50.474;4.436;2023-03-14T13:27:17;5.43;;;1.45;;
78610;SDS011;67932;50.474;4.436;2023-03-14T13:29:45;4.07;;;1.88;;
78610;SDS011;67932;50.474;4.436;2023-03-14T13:32:19;3.92;;;1.60;;
78610;SDS011;67932;50.474;4.436;2023-03-14T13:34:46;1.98;;;1.48;;
78610;SDS011;67932;50.474;4.436;2023-03-14T13:45:41;1.58;;;1.35;;
78610;SDS011;67932;50.474;4.436;2023-03-14T13:48:09;4.00;;;1.80;;
78610;SDS011;67932;50.474;4.436;2023-03-14T13:50:35;3.90;;;2.05;;
78610;SDS011;67932;50.474;4.436;2023-03-14T13:53:01;4.95;;;2.47;;
78610;SDS011;67932;50.474;4.436;2023-03-14T13:55:28;4.50;;;2.88;;
78610;SDS011;67932;50.474;4.436;2023-03-14T13:57:55;3.40;;;2.22;;
78610;SDS011;67932;50.474;4.436;2023-03-14T14:00:23;3.80;;;1.92;;
78610;SDS011;67932;50.474;4.436;2023-03-14T14:02:52;3.63;;;1.58;;
78610;SDS011;67932;50.474;4.436;2023-03-14T14:05:19;3.38;;;1.50;;
78610;SDS011;67932;50.474;4.436;2023-03-14T14:07:45;2.10;;;0.90;;
78610;SDS011;67932;50.474;4.436;2023-03-14T14:10:12;1.33;;;0.85;;
78610;SDS011;67932;50.474;4.436;2023-03-14T14:12:41;1.02;;;0.80;;
78610;SDS011;67932;50.474;4.436;2023-03-14T14:15:11;2.65;;;0.95;;
78610;SDS011;67932;50.474;4.436;2023-03-14T14:17:44;1.98;;;1.02;;
78610;SDS011;67932;50.474;4.436;2023-03-14T14:20:34;1.83;;;0.95;;
78610;SDS011;67932;50.474;4.436;2023-03-14T14:23:07;1.15;;;0.80;;
78610;SDS011;67932;50.474;4.436;2023-03-14T14:28:44;0.93;;;0.70;;
78610;SDS011;67932;50.474;4.436;2023-03-14T14:31:22;0.70;;;0.50;;
78610;SDS011;67932;50.474;4.436;2023-03-14T14:39:00;2.72;;;1.02;;
78610;SDS011;67932;50.474;4.436;2023-03-14T14:41:30;1.52;;;0.68;;
78610;SDS011;67932;50.474;4.436;2023-03-14T14:43:57;3.13;;;0.80;;
78610;SDS011;67932;50.474;4.436;2023-03-14T14:46:25;1.30;;;0.73;;
78610;SDS011;67932;50.474;4.436;2023-03-14T14:48:54;1.42;;;0.80;;
78610;SDS011;67932;50.474;4.436;2023-03-14T14:51:23;0.93;;;0.50;;
78610;SDS011;67932;50.474;4.436;2023-03-14T14:53:59;0.82;;;0.50;;
78610;SDS011;67932;50.474;4.436;2023-03-14T14:56:26;1.85;;;0.38;;
78610;SDS011;67932;50.474;4.436;2023-03-14T14:58:57;3.08;;;0.88;;
78610;SDS011;67932;50.474;4.436;2023-03-14T15:01:24;3.00;;;0.52;;
78610;SDS011;67932;50.474;4.436;2023-03-14T15:03:55;3.67;;;0.88;;
78610;SDS011;67932;50.474;4.436;2023-03-14T15:06:21;4.78;;;1.85;;
78610;SDS011;67932;50.474;4.436;2023-03-14T15:08:52;5.55;;;1.00;;
78610;SDS011;67932;50.474;4.436;2023-03-14T15:11:25;3.72;;;0.80;;
78610;SDS011;67932;50.474;4.436;2023-03-14T15:19:46;5.65;;;0.98;;
78610;SDS011;67932;50.474;4.436;2023-03-14T15:22:12;2.30;;;0.73;;
78610;SDS011;67932;50.474;4.436;2023-03-14T15:24:39;3.85;;;1.00;;
78610;SDS011;67932;50.474;4.436;2023-03-14T15:27:09;4.82;;;0.88;;
78610;SDS011;67932;50.474;4.436;2023-03-14T15:29:36;10.98;;;0.90;;
78610;SDS011;67932;50.474;4.436;2023-03-14T15:32:02;5.47;;;0.90;;
78610;SDS011;67932;50.474;4.436;2023-03-14T15:34:28;4.57;;;1.25;;
78610;SDS011;67932;50.474;4.436;2023-03-14T15:36:55;5.88;;;1.50;;
78610;SDS011;67932;50.474;4.436;2023-03-14T15:39:21;5.85;;;1.50;;
78610;SDS011;67932;50.474;4.436;2023-03-14T15:41:47;4.47;;;1.05;;
78610;SDS011;67932;50.474;4.436;2023-03-14T15:44:14;6.32;;;1.45;;
78610;SDS011;67932;50.474;4.436;2023-03-14T15:46:43;4.97;;;1.20;;
78610;SDS011;67932;50.474;4.436;2023-03-14T15:49:11;2.85;;;0.55;;
78610;SDS011;67932;50.474;4.436;2023-03-14T15:51:37;3.00;;;0.80;;
78610;SDS011;67932;50.474;4.436;2023-03-14T15:54:03;6.28;;;1.00;;
78610;SDS011;67932;50.474;4.436;2023-03-14T15:56:29;2.70;;;1.02;;
78610;SDS011;67932;50.474;4.436;2023-03-14T15:58:57;4.22;;;0.60;;
78610;SDS011;67932;50.474;4.436;2023-03-14T16:01:23;5.90;;;1.17;;
78610;SDS011;67932;50.474;4.436;2023-03-14T16:03:49;3.75;;;0.85;;
78610;SDS011;67932;50.474;4.436;2023-03-14T16:06:17;2.67;;;0.60;;
78610;SDS011;67932;50.474;4.436;2023-03-14T16:08:43;4.22;;;1.02;;
78610;SDS011;67932;50.474;4.436;2023-03-14T16:11:10;3.45;;;0.98;;
78610;SDS011;67932;50.474;4.436;2023-03-14T16:13:36;3.80;;;1.50;;
78610;SDS011;67932;50.474;4.436;2023-03-14T16:16:03;3.28;;;1.30;;
78610;SDS011;67932;50.474;4.436;2023-03-14T16:18:31;3.78;;;1.33;;
78610;SDS011;67932;50.474;4.436;2023-03-14T16:20:58;4.65;;;1.25;;
78610;SDS011;67932;50.474;4.436;2023-03-14T16:23:25;3.63;;;1.00;;
78610;SDS011;67932;50.474;4.436;2023-03-14T16:25:52;6.90;;;0.77;;
78610;SDS011;67932;50.474;4.436;2023-03-14T16:28:18;5.95;;;1.33;;
78610;SDS011;67932;50.474;4.436;2023-03-14T16:30:45;2.95;;;0.65;;
78610;SDS011;67932;50.474;4.436;2023-03-14T16:33:12;2.25;;;0.85;;
78610;SDS011;67932;50.474;4.436;2023-03-14T16:35:38;4.68;;;0.98;;
78610;SDS011;67932;50.474;4.436;2023-03-14T16:38:04;2.75;;;1.17;;
78610;SDS011;67932;50.474;4.436;2023-03-14T16:40:31;3.85;;;1.23;;